createdAt,value
2019-03-16T00:01:01.006Z,93.62
2019-03-16T00:03:28.043Z,93.42
2019-03-16T00:05:55.076Z,92.98
2019-03-16T00:08:23.431Z,93.31
2019-03-16T00:10:50.716Z,93.45
2019-03-16T00:13:17.996Z,93.64
2019-03-16T00:15:45.289Z,93.77
2019-03-16T00:18:12.578Z,93.75
2019-03-16T00:20:39.869Z,93.41
2019-03-16T00:23:07.313Z,93.36
2019-03-16T00:25:34.697Z,93.56
2019-03-16T00:28:01.729Z,93.60
2019-03-16T00:30:28.774Z,93.28
2019-03-16T00:32:55.800Z,93.15
2019-03-16T00:35:23.100Z,92.96
2019-03-16T00:37:50.374Z,93.27
2019-03-16T00:40:17.415Z,93.12
2019-03-16T00:42:44.692Z,93.06
2019-03-16T00:45:12.064Z,93.05
2019-03-16T00:47:39.312Z,93.24
2019-03-16T00:50:06.616Z,93.29
2019-03-16T00:52:33.890Z,93.34
2019-03-16T00:55:00.937Z,93.35
2019-03-16T00:57:28.209Z,93.56
2019-03-16T00:59:55.518Z,93.75
2019-03-16T01:02:27.365Z,93.58
2019-03-16T01:04:51.544Z,93.64
2019-03-16T01:07:18.573Z,93.74
2019-03-16T01:09:45.617Z,93.76
2019-03-16T01:12:12.906Z,93.76
2019-03-16T01:14:40.190Z,93.66
2019-03-16T01:17:08.426Z,93.75
2019-03-16T01:19:35.472Z,93.78
2019-03-16T01:22:02.747Z,93.90
2019-03-16T01:24:29.798Z,93.81
2019-03-16T01:26:56.816Z,93.62
2019-03-16T01:29:23.877Z,93.39
2019-03-16T01:31:51.286Z,93.51
2019-03-16T01:34:18.318Z,93.58
2019-03-16T01:36:45.364Z,93.52
2019-03-16T01:39:12.649Z,93.68
2019-03-16T01:41:39.939Z,93.78
2019-03-16T01:44:07.326Z,93.81
2019-03-16T01:46:34.378Z,93.75
2019-03-16T01:49:01.750Z,93.78
2019-03-16T01:51:29.081Z,94.02
2019-03-16T01:53:56.436Z,93.89
2019-03-16T01:56:23.828Z,94.02
2019-03-16T01:58:50.863Z,94.00
2019-03-16T02:01:18.197Z,93.83
2019-03-16T02:03:45.226Z,93.79
2019-03-16T02:06:12.599Z,93.81
2019-03-16T02:08:39.956Z,93.87
2019-03-16T02:11:07.004Z,93.56
2019-03-16T02:13:34.107Z,93.42
2019-03-16T02:16:10.886Z,93.57
2019-03-16T02:18:30.320Z,93.65
2019-03-16T02:20:57.366Z,93.75
2019-03-16T02:23:37.499Z,93.95
2019-03-16T02:26:04.855Z,93.74
2019-03-16T02:28:31.886Z,93.98
2019-03-16T02:30:59.258Z,94.17
2019-03-16T02:33:26.617Z,94.22
2019-03-16T02:35:53.985Z,94.38
2019-03-16T02:38:21.268Z,94.40
2019-03-16T02:40:48.319Z,94.41
2019-03-16T02:43:15.835Z,94.53
2019-03-16T02:45:43.205Z,94.42
2019-03-16T02:48:11.578Z,94.21
2019-03-16T02:50:38.865Z,94.30
2019-03-16T02:53:05.896Z,94.25
2019-03-16T02:55:32.944Z,94.43
2019-03-16T02:58:00.240Z,94.39
2019-03-16T03:00:27.624Z,94.43
2019-03-16T03:02:54.658Z,94.56
2019-03-16T03:05:22.044Z,94.55
2019-03-16T03:07:49.346Z,94.58
2019-03-16T03:10:16.391Z,94.54
2019-03-16T03:12:43.429Z,94.64
2019-03-16T03:15:10.853Z,94.68
2019-03-16T03:17:38.232Z,94.82
2019-03-16T03:20:05.546Z,94.84
2019-03-16T03:22:32.897Z,94.90
2019-03-16T03:25:00.371Z,94.74
2019-03-16T03:27:27.713Z,94.85
2019-03-16T03:29:57.222Z,94.69
2019-03-16T03:32:23.506Z,94.85
2019-03-16T03:34:50.534Z,94.95
2019-03-16T03:37:17.585Z,94.92
2019-03-16T03:39:44.615Z,94.86
2019-03-16T03:42:12.900Z,95.00
2019-03-16T03:44:40.179Z,94.96
2019-03-16T03:47:07.495Z,95.03
2019-03-16T03:49:34.527Z,95.01
2019-03-16T03:52:01.580Z,95.03
2019-03-16T03:54:28.864Z,94.94
2019-03-16T03:56:55.912Z,94.98
2019-03-16T03:59:23.195Z,95.03
2019-03-16T04:01:50.505Z,95.01
2019-03-16T04:04:17.788Z,95.01
2019-03-16T04:06:44.826Z,94.88
2019-03-16T04:09:12.114Z,94.97
2019-03-16T04:11:39.156Z,95.00
2019-03-16T04:14:06.435Z,94.94
2019-03-16T04:16:33.486Z,94.95
2019-03-16T04:19:00.790Z,94.95
2019-03-16T04:21:28.095Z,94.92
2019-03-16T04:23:55.127Z,94.96
2019-03-16T04:26:22.543Z,94.96
2019-03-16T04:28:49.827Z,94.88
2019-03-16T04:31:16.877Z,94.88
2019-03-16T04:33:44.228Z,94.80
2019-03-16T04:36:11.502Z,94.81
2019-03-16T04:38:38.554Z,94.60
2019-03-16T04:41:05.834Z,94.63
2019-03-16T04:43:33.145Z,94.70
2019-03-16T04:46:00.181Z,94.74
2019-03-16T04:48:27.225Z,94.80
2019-03-16T04:50:54.266Z,94.84
2019-03-16T04:53:21.684Z,94.81
2019-03-16T04:55:49.018Z,94.80
2019-03-16T04:58:16.070Z,94.55
2019-03-16T05:00:43.106Z,94.52
2019-03-16T05:03:10.163Z,94.49
2019-03-16T05:05:37.513Z,94.16
2019-03-16T05:08:04.870Z,94.37
2019-03-16T05:10:32.225Z,94.45
2019-03-16T05:12:59.278Z,94.37
2019-03-16T05:15:27.386Z,94.65
2019-03-16T05:17:54.440Z,94.61
2019-03-16T05:20:21.749Z,94.72
2019-03-16T05:22:48.809Z,94.64
2019-03-16T05:25:16.147Z,94.58
2019-03-16T05:27:43.522Z,94.65
2019-03-16T05:30:10.559Z,94.47
2019-03-16T05:32:37.617Z,94.46
2019-03-16T05:35:04.975Z,94.36
2019-03-16T05:37:32.333Z,94.45
2019-03-16T05:39:59.616Z,94.43
2019-03-16T05:42:27.025Z,94.25
2019-03-16T05:44:54.477Z,94.27
2019-03-16T05:47:21.850Z,94.34
2019-03-16T05:49:48.901Z,94.29
2019-03-16T05:52:15.933Z,94.28
2019-03-16T05:54:42.990Z,94.25
2019-03-16T05:57:10.274Z,94.26
2019-03-16T05:59:37.327Z,94.14
2019-03-16T06:02:04.654Z,93.93
2019-03-16T06:04:31.726Z,93.85
2019-03-16T06:06:58.748Z,93.86
2019-03-16T06:09:25.794Z,94.05
2019-03-16T06:11:52.829Z,94.05
2019-03-16T06:14:20.185Z,93.96
2019-03-16T06:16:47.466Z,93.58
2019-03-16T06:19:15.491Z,93.69
2019-03-16T06:21:42.859Z,93.76
2019-03-16T06:24:10.154Z,93.66
2019-03-16T06:26:37.195Z,93.74
2019-03-16T06:29:04.246Z,93.67
2019-03-16T06:31:31.285Z,93.61
2019-03-16T06:33:58.616Z,93.83
2019-03-16T06:36:25.984Z,93.75
2019-03-16T06:38:53.044Z,93.73
2019-03-16T06:41:20.328Z,93.70
2019-03-16T06:43:47.372Z,93.52
2019-03-16T06:46:14.482Z,93.47
2019-03-16T06:48:41.836Z,93.52
2019-03-16T06:51:08.872Z,93.60
2019-03-16T06:53:35.922Z,93.65
2019-03-16T06:56:03.127Z,93.24
2019-03-16T06:58:30.447Z,93.34
2019-03-16T07:01:13.671Z,93.38
2019-03-16T07:09:22.176Z,93.45
2019-03-16T07:11:49.219Z,93.60
2019-03-16T07:14:20.700Z,93.52
2019-03-16T07:17:01.052Z,93.34
2019-03-16T07:19:16.756Z,93.46
2019-03-16T07:21:44.096Z,93.35
2019-03-16T07:24:11.149Z,93.42
2019-03-16T07:26:38.439Z,93.26
2019-03-16T07:29:05.754Z,93.25
2019-03-16T07:31:51.060Z,93.20
2019-03-16T07:34:18.099Z,93.34
2019-03-16T07:36:45.129Z,93.09
2019-03-16T07:39:12.173Z,93.09
2019-03-16T07:41:39.472Z,92.71
2019-03-16T07:44:06.885Z,92.90
2019-03-16T07:46:34.242Z,92.89
2019-03-16T07:49:01.542Z,92.79
2019-03-16T07:51:28.573Z,92.65
2019-03-16T07:53:55.877Z,92.78
2019-03-16T07:56:23.277Z,92.78
2019-03-16T07:58:50.328Z,92.62
2019-03-16T08:01:17.671Z,92.61
2019-03-16T08:03:45.015Z,92.67
2019-03-16T08:06:12.043Z,92.88
2019-03-16T08:08:39.417Z,92.95
2019-03-16T08:11:06.778Z,92.95
2019-03-16T08:13:34.116Z,92.92
2019-03-16T08:16:01.477Z,92.79
2019-03-16T08:18:28.511Z,92.65
2019-03-16T08:20:55.555Z,92.70
2019-03-16T08:23:22.943Z,92.45
2019-03-16T08:25:49.990Z,91.97
2019-03-16T08:28:17.098Z,91.71
2019-03-16T08:30:44.390Z,92.11
2019-03-16T08:33:11.422Z,91.90
2019-03-16T08:35:38.720Z,91.98
2019-03-16T08:38:06.058Z,92.07
2019-03-16T08:40:33.383Z,92.08
2019-03-16T08:43:00.419Z,92.23
2019-03-16T08:45:27.466Z,92.15
2019-03-16T08:47:54.836Z,92.09
2019-03-16T08:50:21.883Z,91.81
2019-03-16T08:52:49.245Z,91.55
2019-03-16T08:55:16.290Z,91.08
2019-03-16T08:57:43.324Z,90.93
2019-03-16T09:00:10.611Z,90.72
2019-03-16T09:02:37.943Z,90.68
2019-03-16T09:05:05.961Z,90.44
2019-03-16T09:07:41.668Z,90.25
2019-03-16T09:10:08.718Z,90.64
2019-03-16T09:12:36.068Z,90.83
2019-03-16T09:15:03.437Z,91.00
2019-03-16T09:17:30.464Z,91.02
2019-03-16T09:19:57.829Z,90.68
2019-03-16T09:22:24.879Z,90.42
2019-03-16T09:24:52.190Z,90.67
2019-03-16T09:27:30.569Z,90.76
2019-03-16T09:29:48.330Z,89.61
2019-03-16T09:32:15.649Z,89.62
2019-03-16T09:34:43.037Z,89.75
2019-03-16T09:37:10.028Z,88.92
2019-03-16T09:39:37.063Z,89.52
2019-03-16T09:42:04.352Z,88.86
2019-03-16T09:44:31.384Z,88.59
2019-03-16T09:46:58.437Z,88.28
2019-03-16T09:49:25.816Z,87.93
2019-03-16T09:51:52.844Z,88.34
2019-03-16T09:54:19.882Z,87.21
2019-03-16T09:57:00.212Z,85.43
2019-03-16T09:59:15.905Z,85.84
2019-03-16T10:01:43.294Z,86.36
2019-03-16T10:04:10.630Z,85.04
2019-03-16T10:06:37.679Z,84.61
2019-03-16T10:09:04.715Z,83.52
2019-03-16T10:11:32.097Z,83.32
2019-03-16T10:14:00.100Z,82.58
2019-03-16T10:16:27.525Z,83.76
2019-03-16T10:18:54.556Z,83.18
2019-03-16T10:21:21.615Z,82.82
2019-03-16T10:23:48.638Z,83.38
2019-03-16T10:26:15.685Z,83.15
2019-03-16T10:28:43.834Z,84.65
2019-03-16T10:31:11.045Z,84.32
2019-03-16T10:33:38.147Z,84.50
2019-03-16T10:36:05.529Z,84.71
2019-03-16T10:38:32.577Z,84.90
2019-03-16T10:41:05.153Z,85.27
2019-03-16T10:43:32.207Z,85.65
2019-03-16T10:45:59.243Z,85.97
2019-03-16T10:48:26.626Z,86.96
2019-03-16T10:50:53.657Z,87.33
2019-03-16T10:53:20.707Z,87.78
2019-03-16T10:55:47.739Z,88.03
2019-03-16T10:58:14.782Z,88.21
2019-03-16T11:00:42.154Z,88.50
2019-03-16T11:03:09.213Z,88.32
2019-03-16T11:05:36.572Z,88.39
2019-03-16T11:08:03.923Z,88.13
2019-03-16T11:10:30.978Z,87.63
2019-03-16T11:12:58.023Z,87.18
2019-03-16T11:15:25.304Z,87.17
2019-03-16T11:17:52.351Z,87.63
2019-03-16T11:20:19.662Z,87.81
2019-03-16T11:22:46.999Z,86.01
2019-03-16T11:25:14.375Z,86.47
2019-03-16T11:27:41.659Z,85.58
2019-03-16T11:30:08.984Z,84.89
2019-03-16T11:32:36.436Z,84.91
2019-03-16T11:35:03.471Z,85.21
2019-03-16T11:37:30.852Z,85.17
2019-03-16T11:39:58.194Z,84.47
2019-03-16T11:42:25.249Z,82.54
2019-03-16T11:44:52.534Z,79.97
2019-03-16T11:47:19.853Z,77.44
2019-03-16T11:49:46.887Z,75.64
2019-03-16T11:52:13.937Z,71.22
2019-03-16T11:54:41.301Z,66.07
2019-03-16T11:57:08.351Z,60.31
2019-03-16T11:59:35.386Z,62.71
2019-03-16T12:02:05.645Z,65.13
2019-03-16T12:04:31.866Z,54.04
2019-03-16T12:06:59.219Z,52.60
2019-03-16T12:09:26.558Z,57.14
2019-03-16T12:11:53.917Z,58.40
2019-03-16T12:14:21.279Z,59.08
2019-03-16T12:16:48.353Z,60.11
2019-03-16T12:19:15.669Z,61.91
2019-03-16T12:21:42.707Z,61.94
2019-03-16T12:24:09.760Z,64.66
2019-03-16T12:26:36.798Z,66.11
2019-03-16T12:29:03.846Z,66.83
2019-03-16T12:31:31.218Z,67.42
2019-03-16T12:33:58.269Z,67.43
2019-03-16T12:36:25.302Z,67.38
2019-03-16T12:38:52.350Z,67.02
2019-03-16T12:41:19.389Z,63.78
2019-03-16T12:43:46.789Z,64.65
2019-03-16T12:46:13.828Z,64.86
2019-03-16T12:48:40.883Z,65.56
2019-03-16T12:51:07.922Z,66.33
2019-03-16T12:53:35.265Z,63.59
2019-03-16T12:56:02.619Z,61.96
2019-03-16T12:58:29.673Z,61.32
2019-03-16T13:03:46.204Z,62.92
2019-03-16T13:06:14.310Z,61.58
2019-03-16T13:08:41.762Z,58.85
2019-03-16T13:11:08.816Z,58.49
2019-03-16T13:13:37.268Z,59.60
2019-03-16T13:16:04.296Z,53.01
2019-03-16T13:18:31.754Z,42.92
2019-03-16T13:20:58.786Z,44.63
2019-03-16T13:23:26.179Z,48.96
2019-03-16T13:25:53.214Z,50.15
2019-03-16T13:28:20.278Z,53.88
2019-03-16T13:30:47.611Z,58.46
2019-03-16T13:33:15.623Z,59.33
2019-03-16T13:35:42.657Z,58.74
2019-03-16T13:38:10.002Z,59.19
2019-03-16T13:40:37.335Z,57.83
2019-03-16T13:43:04.382Z,57.47
2019-03-16T13:45:31.416Z,56.95
2019-03-16T13:47:58.448Z,58.31
2019-03-16T13:50:25.834Z,59.34
2019-03-16T13:52:53.394Z,57.89
2019-03-16T13:55:20.778Z,56.15
2019-03-16T13:57:47.845Z,53.80
2019-03-16T14:00:15.559Z,54.22
2019-03-16T14:02:43.958Z,51.89
2019-03-16T14:05:11.014Z,52.44
2019-03-16T14:07:38.650Z,53.76
2019-03-16T14:10:06.004Z,52.71
2019-03-16T14:12:33.377Z,54.10
2019-03-16T14:15:00.725Z,53.41
2019-03-16T14:17:28.020Z,53.98
2019-03-16T14:19:55.439Z,55.91
2019-03-16T14:22:22.487Z,54.86
2019-03-16T14:24:49.539Z,55.14
2019-03-16T14:27:16.879Z,54.59
2019-03-16T14:29:45.404Z,55.66
2019-03-16T14:32:12.978Z,54.92
2019-03-16T14:34:40.586Z,56.21
2019-03-16T14:37:07.959Z,56.31
2019-03-16T14:39:35.356Z,56.03
2019-03-16T14:42:02.957Z,57.17
2019-03-16T14:44:30.008Z,56.66
2019-03-16T14:46:57.354Z,55.41
2019-03-16T14:49:24.795Z,55.39
2019-03-16T14:51:51.816Z,54.92
2019-03-16T14:54:21.147Z,56.10
2019-03-16T14:56:48.456Z,56.24
2019-03-16T14:59:15.730Z,55.23
2019-03-16T15:01:42.984Z,54.49
2019-03-16T15:06:54.483Z,53.28
2019-03-16T15:09:25.723Z,55.00
2019-03-16T15:12:03.320Z,55.59
2019-03-16T15:17:03.958Z,57.05
2019-03-16T15:19:35.365Z,56.66
2019-03-16T15:22:03.569Z,57.11
2019-03-16T15:24:32.785Z,56.02
2019-03-16T15:27:01.997Z,56.60
2019-03-16T15:29:32.822Z,57.65
2019-03-16T15:32:12.440Z,57.96
2019-03-16T15:42:34.441Z,61.80
2019-03-16T15:47:53.486Z,62.54
2019-03-16T15:50:25.651Z,63.58
2019-03-16T15:52:56.691Z,63.10
2019-03-16T15:55:24.045Z,63.48
2019-03-16T15:57:52.530Z,63.48
2019-03-16T16:00:24.849Z,63.51
2019-03-16T16:05:45.731Z,64.80
2019-03-16T16:08:21.514Z,65.18
2019-03-16T16:11:00.358Z,64.82
2019-03-16T16:13:33.732Z,64.94
2019-03-16T16:16:06.177Z,64.56
2019-03-16T16:18:35.390Z,65.38
2019-03-16T16:21:02.726Z,66.27
2019-03-16T16:23:30.489Z,66.53
2019-03-16T16:28:34.419Z,67.55
2019-03-16T16:36:20.564Z,69.08
2019-03-16T16:43:53.818Z,68.29
2019-03-16T16:49:04.100Z,69.55
2019-03-16T16:51:36.827Z,70.00
2019-03-16T16:54:21.210Z,69.05
2019-03-16T16:59:24.645Z,70.29
2019-03-16T17:01:53.075Z,71.81
2019-03-16T17:04:27.396Z,70.90
2019-03-16T17:09:33.270Z,70.95
2019-03-16T17:12:00.463Z,71.62
2019-03-16T17:14:28.905Z,72.41
2019-03-16T17:17:00.095Z,71.86
2019-03-16T17:19:27.332Z,72.63
2019-03-16T17:21:54.382Z,73.19
2019-03-16T17:24:27.367Z,74.60
2019-03-16T17:29:33.716Z,75.69
2019-03-16T17:32:00.917Z,75.51
2019-03-16T17:34:28.823Z,76.51
2019-03-16T17:36:59.416Z,76.92
2019-03-16T17:39:28.600Z,77.44
2019-03-16T17:41:57.811Z,77.90
2019-03-16T17:44:38.284Z,78.07
2019-03-16T17:54:52.283Z,80.92
2019-03-16T17:57:20.665Z,81.12
2019-03-16T17:59:48.077Z,81.25
2019-03-16T18:02:20.011Z,81.66
2019-03-16T18:04:48.239Z,81.89
2019-03-16T18:07:16.418Z,82.18
2019-03-16T18:09:50.408Z,82.77
2019-03-16T18:12:21.687Z,82.54
2019-03-16T18:14:54.954Z,82.21
2019-03-16T18:17:24.010Z,82.82
2019-03-16T18:19:51.309Z,83.35
2019-03-16T18:22:18.363Z,83.82
2019-03-16T18:24:52.349Z,83.30
2019-03-16T18:29:58.737Z,83.64
2019-03-16T18:32:25.916Z,84.02
2019-03-16T18:35:01.237Z,84.58
2019-03-16T18:37:34.598Z,84.87
2019-03-16T18:40:11.203Z,85.00
2019-03-16T18:42:39.422Z,85.39
2019-03-16T18:45:18.713Z,86.34
2019-03-16T18:47:45.986Z,86.78
2019-03-16T18:50:21.223Z,87.17
2019-03-16T18:55:22.285Z,87.72
2019-03-16T19:00:28.257Z,86.01
2019-03-16T19:03:01.248Z,85.38
2019-03-16T19:05:29.697Z,85.40
2019-03-16T19:07:56.878Z,84.74
2019-03-16T19:10:29.848Z,85.33
2019-03-16T19:12:58.043Z,84.83
2019-03-16T19:15:25.959Z,83.80
2019-03-16T19:20:27.471Z,83.12
2019-03-16T19:22:54.572Z,82.32
2019-03-16T19:25:29.758Z,81.42
2019-03-16T19:28:01.525Z,80.71
2019-03-16T19:30:28.752Z,80.84
2019-03-16T19:32:59.098Z,80.98
2019-03-16T19:35:41.561Z,81.40
2019-03-16T19:38:08.755Z,81.57
2019-03-16T19:43:29.592Z,81.30
2019-03-16T19:46:00.603Z,80.68
2019-03-16T19:48:29.727Z,80.68
2019-03-16T19:50:58.258Z,79.96
2019-03-16T19:53:30.425Z,80.63
2019-03-16T19:55:59.653Z,79.81
2019-03-16T19:58:27.851Z,79.69
2019-03-16T20:00:54.883Z,80.21
2019-03-16T20:03:23.324Z,79.33
2019-03-16T20:05:51.423Z,80.08
2019-03-16T20:08:24.327Z,80.19
2019-03-16T20:11:06.363Z,79.99
2019-03-16T20:13:28.767Z,80.51
2019-03-16T20:18:46.493Z,80.38
2019-03-16T20:21:13.482Z,78.93
2019-03-16T20:23:40.526Z,79.49
2019-03-16T20:26:19.745Z,79.21
2019-03-16T20:31:46.783Z,80.24
2019-03-16T20:34:15.247Z,81.09
2019-03-16T20:36:42.428Z,81.63
2019-03-16T20:39:10.880Z,80.73
2019-03-16T20:41:40.104Z,81.20
2019-03-16T20:49:19.144Z,79.10
2019-03-16T20:54:51.898Z,75.94
2019-03-16T20:57:25.268Z,74.36
2019-03-16T20:59:53.464Z,73.86
2019-03-16T21:02:27.807Z,72.69
2019-03-16T21:04:59.445Z,73.18
2019-03-16T21:07:34.966Z,72.95
2019-03-16T21:10:02.033Z,73.06
2019-03-16T21:12:41.556Z,73.51
2019-03-16T21:15:13.467Z,73.57
2019-03-16T21:17:42.769Z,73.30
2019-03-16T21:20:11.176Z,73.22
2019-03-16T21:22:51.764Z,73.74
2019-03-16T21:25:22.392Z,74.76
2019-03-16T21:28:01.417Z,74.41
2019-03-16T21:30:28.952Z,74.61
2019-03-16T21:33:06.752Z,73.77
2019-03-16T21:35:39.723Z,74.43
2019-03-16T21:38:07.944Z,74.75
2019-03-16T21:40:36.501Z,74.56
2019-03-16T21:45:57.794Z,74.24
2019-03-16T21:48:26.046Z,73.95
2019-03-16T21:50:54.228Z,74.04
2019-03-16T21:53:22.122Z,73.24
2019-03-16T21:55:50.381Z,73.59
2019-03-16T21:58:18.528Z,72.92
2019-03-16T22:00:45.961Z,73.11
2019-03-16T22:03:26.041Z,72.46
2019-03-16T22:05:55.258Z,72.15
2019-03-16T22:08:23.412Z,71.63
2019-03-16T22:13:27.105Z,71.47
2019-03-16T22:18:26.881Z,70.62
2019-03-16T22:20:54.390Z,70.40
2019-03-16T22:23:36.733Z,70.37
2019-03-16T22:26:04.915Z,70.48
2019-03-16T22:28:33.081Z,70.44
2019-03-16T22:31:00.119Z,70.47
2019-03-16T22:33:34.704Z,70.34
2019-03-16T22:38:37.478Z,68.72
2019-03-16T22:43:39.809Z,66.98
2019-03-16T22:46:12.183Z,67.01
2019-03-16T22:48:57.486Z,66.26
2019-03-16T22:53:59.791Z,66.43
2019-03-16T22:59:18.625Z,66.33
2019-03-16T23:01:46.841Z,66.44
2019-03-16T23:04:24.219Z,66.62
2019-03-16T23:06:51.520Z,66.15
2019-03-16T23:09:25.913Z,65.23
2019-03-16T23:11:54.085Z,64.91
2019-03-16T23:14:25.094Z,64.12
2019-03-16T23:16:56.267Z,63.94
2019-03-16T23:19:31.949Z,63.98
2019-03-16T23:22:00.196Z,62.86
2019-03-16T23:24:28.350Z,62.68
2019-03-16T23:29:28.527Z,62.82
2019-03-16T23:31:55.564Z,62.19
2019-03-16T23:34:24.830Z,62.05
2019-03-16T23:39:26.528Z,60.87
2019-03-16T23:41:56.850Z,60.06
2019-03-16T23:44:29.180Z,60.67
2019-03-16T23:46:57.665Z,60.01
2019-03-16T23:49:25.426Z,59.37
2019-03-16T23:51:52.472Z,59.63
2019-03-16T23:54:19.537Z,59.86
2019-03-16T23:56:46.817Z,58.97
2019-03-16T23:59:13.847Z,59.04
